"WATCHING THE WEATHER TO PROTECT LIFE AND PROPERTY"


Aviation
Satellite (InfraRed)


KFLL 261353Z 10016KT 10SM FEW030 SCT070 24/18 A3010 RMK AO2 SLP193 T02440178 $
KMCO 261353Z 13005KT 10SM FEW030 FEW100 23/17 A3016 RMK AO2 SLP212 T02330167
KMIA 261353Z 10015KT 10SM SCT030 BKN060 25/18 A3011 RMK AO2 SLP195 T02500178 $
KTPA 261353Z VRB05KT 10SM SCT170 23/17 A3015 RMK AO2 SLP210 T02280172
MDPP 261400Z 33006KT 9999 SCT020 24/22 Q1013 NOSIG
MDSD 261400Z 02004KT 9999 FEW020 27/20 Q1013
MKJS 261400Z 11005KT 9999 FEW022 28/20 Q1014
MTPP 261400Z VRB02KT 9999 FEW024 29/21 Q1012 A2991
MUHA 261355Z 09010KT 9999 FEW025 25/17 Q1018
MYNN 261400Z 05014KT 9999 VCSH FEW015CB SCT018TCU 26/14 A3011 RMK CB/VCSH/W TCU/S--SW
TAPA 261400Z 13009KT 9999 SCT017 28/21 Q1015 NOSIG
TFFF 261430Z AUTO 12011KT 9999 FEW034 SCT040 BKN060 29/21 Q1015 TEMPO 3000 SHRA BKN020TCU
TFFR 261430Z AUTO 14013KT 9999 FEW030 28/20 Q1015 TEMPO 4000 -SHRA SCT020TCU
TIST 261353Z 14013KT 10SM BKN090 26/24 A2995 RMK AO2 SLP143 T02610239
TISX 261353Z 15009KT 10SM SCT022 28/23 A2998 RMK AO2 SLP149 T02830228 $
TJSJ 261356Z 13007KT 10SM SCT029 SCT050 SCT085 29/23 A2994 RMK AO2 SLP137 T02890228 $
TKPK 261400Z 10015KT 9999 FEW021 29/21 Q1015
TNCA 261400Z 10011KT 070V140 9999 FEW022 30/23 Q1013 A2992 NOSIG
TNCB 261355Z 10012KT 070V140 9999 SCT018 31/23 Q1013
TNCC 261400Z 09010KT 9999 SCT022 29/24 Q1014 NOSIG
TNCE 261355Z AUTO 12004KT 050V220 //// // ///////// 27/23 Q1015 RE//
TNCM 261400Z 14011KT 9999 SCT018 27/24 Q1015 A2998 NOSIG
TQPF 261400Z 13012KT 9999 FEW020 28/21 Q1015
TUPJ 261400Z 17010KT 9999 SCT018 SCT035 28/24 Q1014 RMK A2997